createdAt,value
2024-01-19T00:01:25.996Z,1.50
2024-01-19T00:03:53.080Z,1.60
2024-01-19T00:06:20.364Z,1.35
2024-01-19T00:08:51.102Z,1.50
2024-01-19T00:11:19.467Z,1.50
2024-01-19T00:13:47.680Z,1.13
2024-01-19T00:16:14.817Z,1.52
2024-01-19T00:18:42.219Z,1.58
2024-01-19T00:21:09.204Z,1.98
2024-01-19T00:23:39.567Z,1.60
2024-01-19T00:26:06.862Z,1.67
2024-01-19T00:28:34.316Z,1.70
2024-01-19T00:31:03.600Z,2.50
2024-01-19T00:33:30.935Z,2.85
2024-01-19T00:35:58.129Z,1.65
2024-01-19T00:38:25.992Z,1.48
2024-01-19T00:40:53.516Z,1.40
2024-01-19T00:43:20.656Z,0.95
2024-01-19T00:45:47.782Z,1.13
2024-01-19T00:48:15.094Z,1.20
2024-01-19T00:50:42.246Z,1.30
2024-01-19T00:53:09.756Z,1.70
2024-01-19T00:55:36.782Z,1.00
2024-01-19T00:58:03.790Z,1.23
2024-01-19T01:00:30.844Z,1.30
2024-01-19T01:02:58.650Z,1.17
2024-01-19T01:05:25.918Z,1.50
2024-01-19T01:07:53.029Z,1.25
2024-01-19T01:10:20.151Z,1.50
2024-01-19T01:12:47.260Z,1.33
2024-01-19T01:15:15.627Z,1.52
2024-01-19T01:17:43.010Z,1.25
2024-01-19T01:20:13.822Z,1.58
2024-01-19T01:22:40.945Z,1.60
2024-01-19T01:25:08.063Z,1.20
2024-01-19T01:27:35.116Z,1.10
2024-01-19T01:30:08.282Z,1.30
2024-01-19T01:32:35.814Z,1.10
2024-01-19T01:35:03.856Z,0.90
2024-01-19T01:37:31.317Z,1.10
2024-01-19T01:39:58.449Z,0.90
2024-01-19T01:42:25.557Z,0.95
2024-01-19T01:44:52.683Z,0.90
2024-01-19T01:47:19.856Z,0.80
2024-01-19T01:49:47.154Z,0.90
2024-01-19T01:52:14.478Z,0.70
2024-01-19T01:54:41.545Z,1.17
2024-01-19T01:57:09.066Z,0.77
2024-01-19T01:59:36.197Z,0.88
2024-01-19T02:02:04.276Z,0.90
2024-01-19T02:04:31.561Z,1.30
2024-01-19T02:06:58.894Z,1.00
2024-01-19T02:09:26.065Z,0.90
2024-01-19T02:11:54.088Z,0.98
2024-01-19T02:14:21.129Z,1.00
2024-01-19T02:16:48.259Z,1.10
2024-01-19T02:19:15.398Z,1.25
2024-01-19T02:21:42.834Z,1.27
2024-01-19T02:24:14.553Z,0.95
2024-01-19T02:26:42.022Z,1.08
2024-01-19T02:29:09.103Z,1.00
2024-01-19T02:31:36.220Z,1.20
2024-01-19T02:34:03.659Z,0.80
2024-01-19T02:36:30.617Z,1.63
2024-01-19T02:38:57.630Z,1.30
2024-01-19T02:41:24.815Z,1.00
2024-01-19T02:43:51.790Z,1.00
2024-01-19T02:46:21.770Z,1.45
2024-01-19T02:48:48.979Z,1.10
2024-01-19T02:51:16.070Z,0.60
2024-01-19T02:53:43.163Z,0.82
2024-01-19T02:56:10.316Z,0.80
2024-01-19T02:58:37.319Z,0.98
2024-01-19T03:01:04.445Z,0.65
2024-01-19T03:03:31.573Z,0.90
2024-01-19T03:05:58.630Z,0.80
2024-01-19T03:08:25.851Z,0.80
2024-01-19T03:10:52.972Z,0.80
2024-01-19T03:13:20.175Z,1.20
2024-01-19T03:15:47.164Z,0.70
2024-01-19T03:18:14.656Z,1.00
2024-01-19T03:20:41.880Z,1.02
2024-01-19T03:23:09.757Z,0.90
2024-01-19T03:25:36.914Z,1.05
2024-01-19T03:28:04.224Z,0.90
2024-01-19T03:30:31.337Z,0.70
2024-01-19T03:32:58.504Z,0.80
2024-01-19T03:35:26.574Z,2.72
2024-01-19T03:37:53.827Z,1.35
2024-01-19T03:40:21.874Z,1.70
2024-01-19T03:42:48.951Z,1.58
2024-01-19T03:45:16.125Z,1.52
2024-01-19T03:47:45.042Z,1.80
2024-01-19T03:50:12.496Z,1.85
2024-01-19T03:52:39.708Z,2.35
2024-01-19T03:55:06.927Z,2.15
2024-01-19T03:57:34.122Z,1.63
2024-01-19T04:00:01.479Z,2.05
2024-01-19T04:02:38.912Z,1.88
2024-01-19T04:05:06.522Z,2.10
2024-01-19T04:07:33.491Z,1.85
2024-01-19T04:10:00.619Z,2.55
2024-01-19T04:12:27.624Z,2.20
2024-01-19T04:14:54.664Z,2.60
2024-01-19T04:17:21.777Z,3.35
2024-01-19T04:19:48.905Z,3.33
2024-01-19T04:22:16.005Z,3.63
2024-01-19T04:24:43.128Z,4.45
2024-01-19T04:27:10.907Z,3.85
2024-01-19T04:29:38.005Z,5.43
2024-01-19T04:32:05.381Z,3.78
2024-01-19T04:34:32.538Z,5.00
2024-01-19T04:36:59.586Z,4.28
2024-01-19T04:39:26.971Z,3.47
2024-01-19T04:41:54.120Z,4.15
2024-01-19T04:44:21.324Z,3.63
2024-01-19T04:46:48.445Z,3.45
2024-01-19T04:49:15.572Z,3.33
2024-01-19T04:51:42.935Z,3.72
2024-01-19T04:54:11.887Z,3.42
2024-01-19T04:56:38.931Z,3.28
2024-01-19T04:59:06.584Z,3.53
2024-01-19T05:01:33.581Z,3.38
2024-01-19T05:04:01.100Z,2.85
2024-01-19T05:06:28.723Z,3.58
2024-01-19T05:08:55.985Z,3.70
2024-01-19T05:11:23.362Z,3.03
2024-01-19T05:13:50.482Z,3.47
2024-01-19T05:16:17.879Z,3.80
2024-01-19T05:18:44.916Z,3.13
2024-01-19T05:21:11.974Z,3.20
2024-01-19T05:23:39.052Z,3.30
2024-01-19T05:26:06.287Z,2.95
2024-01-19T05:28:35.192Z,2.70
2024-01-19T05:31:02.337Z,3.80
2024-01-19T05:33:32.067Z,3.42
2024-01-19T05:36:00.029Z,4.50
2024-01-19T05:38:27.077Z,3.30
2024-01-19T05:40:54.216Z,2.75
2024-01-19T05:43:21.194Z,3.78
2024-01-19T05:45:48.178Z,3.78
2024-01-19T05:48:15.409Z,3.78
2024-01-19T05:50:42.564Z,3.78
2024-01-19T05:53:09.683Z,2.88
2024-01-19T05:55:36.727Z,4.32
2024-01-19T05:58:06.338Z,3.92
2024-01-19T06:00:34.780Z,3.10
2024-01-19T06:03:01.957Z,3.10
2024-01-19T06:05:29.202Z,3.25
2024-01-19T06:07:56.303Z,4.07
2024-01-19T06:10:23.422Z,4.07
2024-01-19T06:12:50.419Z,3.70
2024-01-19T06:15:17.422Z,4.68
2024-01-19T06:17:44.927Z,3.72
2024-01-19T06:20:12.755Z,3.55
2024-01-19T06:22:40.224Z,3.22
2024-01-19T06:25:07.652Z,4.10
2024-01-19T06:27:34.920Z,3.25
2024-01-19T06:30:02.061Z,3.58
2024-01-19T06:32:29.266Z,3.20
2024-01-19T06:34:56.666Z,4.20
2024-01-19T06:37:24.149Z,3.03
2024-01-19T06:39:51.165Z,3.10
2024-01-19T06:42:18.140Z,2.95
2024-01-19T06:44:45.667Z,2.92
2024-01-19T06:47:12.749Z,3.15
2024-01-19T06:49:40.497Z,3.88
2024-01-19T06:52:07.864Z,3.17
2024-01-19T06:54:35.029Z,4.55
2024-01-19T06:57:02.773Z,3.92
2024-01-19T06:59:29.982Z,3.38
2024-01-19T07:01:57.081Z,3.53
2024-01-19T07:04:24.244Z,2.70
2024-01-19T07:06:51.515Z,2.92
2024-01-19T07:09:18.899Z,4.03
2024-01-19T07:11:46.743Z,3.47
2024-01-19T07:14:14.119Z,3.20
2024-01-19T07:16:41.811Z,3.03
2024-01-19T07:19:09.043Z,3.75
2024-01-19T07:21:40.002Z,3.30
2024-01-19T07:24:08.982Z,2.97
2024-01-19T07:26:37.167Z,2.92
2024-01-19T07:29:08.602Z,4.70
2024-01-19T07:31:36.198Z,3.70
2024-01-19T07:34:04.599Z,3.25
2024-01-19T07:36:32.640Z,2.90
2024-01-19T07:38:59.922Z,3.90
2024-01-19T07:41:27.301Z,5.07
2024-01-19T07:43:56.226Z,3.15
2024-01-19T07:46:23.328Z,3.00
2024-01-19T07:48:50.754Z,3.13
2024-01-19T07:51:18.153Z,3.80
2024-01-19T07:53:45.237Z,4.00
2024-01-19T07:56:15.367Z,3.83
2024-01-19T07:58:45.509Z,3.63
2024-01-19T08:01:13.096Z,3.30
2024-01-19T08:03:40.562Z,4.68
2024-01-19T08:06:08.016Z,3.35
2024-01-19T08:08:35.204Z,3.30
2024-01-19T08:11:02.437Z,3.80
2024-01-19T08:13:29.478Z,4.07
2024-01-19T08:15:56.481Z,3.75
2024-01-19T08:18:23.707Z,3.70
2024-01-19T08:20:50.937Z,3.05
2024-01-19T08:23:17.965Z,2.20
2024-01-19T08:25:46.289Z,2.67
2024-01-19T08:28:16.657Z,2.70
2024-01-19T08:30:43.834Z,2.90
2024-01-19T08:33:10.907Z,2.75
2024-01-19T08:35:38.144Z,2.33
2024-01-19T08:38:05.280Z,2.30
2024-01-19T08:40:35.213Z,2.45
2024-01-19T08:43:04.102Z,3.60
2024-01-19T08:45:32.672Z,2.13
2024-01-19T08:48:00.120Z,2.05
2024-01-19T08:50:28.710Z,2.63
2024-01-19T08:52:56.989Z,2.30
2024-01-19T08:55:24.139Z,2.42
2024-01-19T08:57:51.285Z,2.10
2024-01-19T09:00:18.568Z,1.75
2024-01-19T09:02:57.083Z,3.35
2024-01-19T09:05:33.421Z,2.00
2024-01-19T09:08:01.337Z,2.25
2024-01-19T09:10:28.517Z,2.30
2024-01-19T09:12:55.664Z,2.10
2024-01-19T09:15:23.119Z,2.10
2024-01-19T09:17:50.276Z,2.22
2024-01-19T09:20:17.485Z,1.83
2024-01-19T09:22:44.870Z,2.53
2024-01-19T09:25:13.008Z,1.80
2024-01-19T09:27:40.175Z,2.20
2024-01-19T09:30:08.181Z,1.95
2024-01-19T09:32:35.358Z,2.53
2024-01-19T09:35:02.419Z,3.13
2024-01-19T09:37:29.630Z,1.92
2024-01-19T09:39:56.724Z,1.80
2024-01-19T09:42:34.904Z,1.42
2024-01-19T09:45:06.233Z,1.50
2024-01-19T09:48:04.366Z,1.60
2024-01-19T09:50:36.813Z,1.33
2024-01-19T09:53:21.873Z,1.42
2024-01-19T09:58:17.278Z,1.40
2024-01-19T10:00:44.995Z,1.40
2024-01-19T10:03:14.531Z,1.30
2024-01-19T10:05:41.914Z,1.05
2024-01-19T10:08:11.803Z,1.25
2024-01-19T10:10:42.337Z,1.40
2024-01-19T10:13:09.798Z,1.17
2024-01-19T10:15:36.882Z,2.33
2024-01-19T10:18:06.747Z,1.52
2024-01-19T10:20:34.327Z,1.55
2024-01-19T10:23:22.567Z,1.23
2024-01-19T10:25:50.933Z,1.80
2024-01-19T10:28:36.744Z,1.48
2024-01-19T10:31:27.600Z,1.52
2024-01-19T10:33:58.297Z,1.77
2024-01-19T10:36:27.551Z,1.40
2024-01-19T10:38:54.734Z,1.92
2024-01-19T10:41:27.216Z,1.75
2024-01-19T10:43:54.622Z,1.90
2024-01-19T10:46:23.544Z,1.42
2024-01-19T10:48:54.426Z,1.83
2024-01-19T10:51:22.306Z,1.48
2024-01-19T10:53:53.367Z,1.63
2024-01-19T10:56:23.444Z,1.90
2024-01-19T10:58:51.216Z,1.65
2024-01-19T11:01:19.365Z,1.70
2024-01-19T11:03:46.691Z,1.48
2024-01-19T11:06:14.222Z,1.25
2024-01-19T11:08:41.802Z,1.13
2024-01-19T11:11:09.031Z,1.10
2024-01-19T11:13:44.047Z,1.38
2024-01-19T11:16:22.445Z,1.73
2024-01-19T11:18:50.382Z,2.40
2024-01-19T11:21:17.617Z,1.10
2024-01-19T11:23:45.733Z,1.30
2024-01-19T11:26:25.431Z,1.48
2024-01-19T11:29:02.834Z,1.20
2024-01-19T11:31:34.065Z,1.20
2024-01-19T11:34:01.376Z,1.13
2024-01-19T11:36:34.675Z,1.73
2024-01-19T11:39:01.804Z,0.90
2024-01-19T11:41:35.155Z,1.20
2024-01-19T11:44:06.607Z,1.30
2024-01-19T11:47:00.339Z,2.00
2024-01-19T11:49:40.174Z,1.50
2024-01-19T11:52:27.696Z,1.40
2024-01-19T11:54:54.732Z,1.30
2024-01-19T11:57:22.811Z,1.55
2024-01-19T11:59:50.067Z,1.38
2024-01-19T12:02:24.682Z,1.75
2024-01-19T12:07:23.506Z,1.52
2024-01-19T12:10:10.619Z,1.75
2024-01-19T12:12:41.879Z,1.70
2024-01-19T12:15:10.952Z,1.55
2024-01-19T12:17:42.094Z,2.00
2024-01-19T12:20:20.466Z,2.13
2024-01-19T12:22:54.231Z,1.63
2024-01-19T12:25:23.676Z,1.55
2024-01-19T12:27:51.496Z,1.83
2024-01-19T12:30:20.678Z,1.20
2024-01-19T12:32:48.847Z,2.00
2024-01-19T12:35:21.093Z,1.92
2024-01-19T12:37:48.701Z,3.17
2024-01-19T12:40:18.651Z,2.97
2024-01-19T12:42:46.449Z,2.63
2024-01-19T12:45:17.625Z,3.53
2024-01-19T12:47:49.263Z,4.13
2024-01-19T12:50:23.015Z,3.85
2024-01-19T12:52:53.288Z,3.38
2024-01-19T12:55:28.221Z,3.28
2024-01-19T12:57:55.597Z,3.92
2024-01-19T13:00:31.745Z,3.75
2024-01-19T13:03:00.116Z,3.35
2024-01-19T13:05:30.644Z,3.75
2024-01-19T13:08:02.743Z,2.90
2024-01-19T13:10:30.803Z,2.92
2024-01-19T13:13:10.216Z,3.00
2024-01-19T13:15:37.993Z,3.75
2024-01-19T13:18:12.405Z,4.47
2024-01-19T13:20:40.905Z,4.25
2024-01-19T13:23:09.322Z,5.75
2024-01-19T13:25:38.819Z,3.90
2024-01-19T13:28:06.677Z,3.25
2024-01-19T13:30:36.034Z,3.63
2024-01-19T13:33:03.632Z,3.50
2024-01-19T13:35:31.515Z,3.38
2024-01-19T13:37:58.858Z,3.20
2024-01-19T13:40:26.284Z,3.17
2024-01-19T13:42:53.563Z,3.63
2024-01-19T13:45:20.935Z,3.83
2024-01-19T13:47:47.975Z,3.58
2024-01-19T13:50:15.458Z,3.70
2024-01-19T13:52:42.768Z,3.25
2024-01-19T13:55:10.223Z,3.20
2024-01-19T13:57:37.838Z,2.60
2024-01-19T14:00:06.916Z,2.92
2024-01-19T14:02:35.379Z,4.32
2024-01-19T14:05:04.675Z,3.05
2024-01-19T14:07:33.207Z,3.47
2024-01-19T14:10:00.666Z,3.38
2024-01-19T14:12:28.229Z,3.42
2024-01-19T14:14:55.697Z,3.35
2024-01-19T14:17:23.309Z,3.08
2024-01-19T14:19:50.578Z,3.53
2024-01-19T14:22:17.890Z,3.78
2024-01-19T14:24:45.025Z,3.15
2024-01-19T14:27:12.081Z,3.47
2024-01-19T14:29:39.593Z,3.67
2024-01-19T14:32:07.203Z,3.33
2024-01-19T14:34:39.828Z,4.35
2024-01-19T14:37:13.556Z,3.58
2024-01-19T14:39:43.341Z,3.30
2024-01-19T14:42:10.687Z,3.20
2024-01-19T14:44:37.827Z,3.30
2024-01-19T14:47:05.829Z,3.40
2024-01-19T14:49:37.973Z,3.58
2024-01-19T14:52:06.672Z,3.20
2024-01-19T14:54:35.293Z,3.00
2024-01-19T14:57:02.764Z,3.88
2024-01-19T14:59:29.890Z,3.17
2024-01-19T15:01:58.066Z,3.63
2024-01-19T15:04:26.041Z,3.28
2024-01-19T15:06:53.433Z,4.53
2024-01-19T15:09:20.601Z,5.82
2024-01-19T15:11:47.773Z,4.00
2024-01-19T15:14:14.961Z,4.70
2024-01-19T15:16:42.463Z,3.83
2024-01-19T15:19:09.723Z,3.88
2024-01-19T15:21:36.796Z,3.45
2024-01-19T15:24:07.881Z,3.63
2024-01-19T15:26:36.010Z,3.58
2024-01-19T15:29:03.709Z,4.13
2024-01-19T15:31:31.075Z,4.03
2024-01-19T15:33:58.441Z,3.92
2024-01-19T15:36:25.662Z,3.53
2024-01-19T15:38:52.831Z,4.25
2024-01-19T15:41:25.250Z,4.03
2024-01-19T15:43:52.788Z,4.13
2024-01-19T15:46:24.186Z,4.18
2024-01-19T15:49:02.987Z,3.80
2024-01-19T15:51:34.409Z,3.25
2024-01-19T15:54:02.210Z,2.78
2024-01-19T15:56:36.669Z,2.53
2024-01-19T15:59:07.132Z,1.85
2024-01-19T16:01:35.092Z,2.20
2024-01-19T16:04:04.200Z,2.90
2024-01-19T16:06:32.834Z,2.63
2024-01-19T16:08:59.981Z,2.50
2024-01-19T16:11:27.093Z,2.20
2024-01-19T16:13:54.156Z,2.42
2024-01-19T16:16:21.355Z,2.00
2024-01-19T16:18:48.398Z,2.65
2024-01-19T16:21:21.339Z,1.88
2024-01-19T16:23:48.543Z,1.67
2024-01-19T16:26:19.488Z,2.22
2024-01-19T16:28:49.565Z,2.28
2024-01-19T16:31:17.650Z,3.45
2024-01-19T16:33:44.688Z,4.07
2024-01-19T16:36:11.884Z,4.70
2024-01-19T16:38:41.469Z,4.47
2024-01-19T16:41:08.637Z,4.68
2024-01-19T16:43:36.000Z,4.90
2024-01-19T16:46:03.957Z,4.53
2024-01-19T16:48:31.010Z,4.35
2024-01-19T16:51:00.795Z,5.10
2024-01-19T16:53:28.013Z,5.78
2024-01-19T16:55:59.718Z,5.22
2024-01-19T16:58:26.830Z,5.57
2024-01-19T17:00:53.991Z,5.88
2024-01-19T17:03:22.126Z,4.47
2024-01-19T17:05:49.418Z,4.80
2024-01-19T17:08:16.698Z,5.00
2024-01-19T17:10:43.958Z,5.25
2024-01-19T17:13:11.194Z,4.72
2024-01-19T17:15:38.353Z,4.65
2024-01-19T17:18:06.105Z,5.40
2024-01-19T17:20:34.251Z,5.85
2024-01-19T17:23:01.577Z,5.78
2024-01-19T17:25:29.360Z,5.70
2024-01-19T17:27:57.536Z,5.53
2024-01-19T17:30:25.402Z,5.97
2024-01-19T17:32:56.733Z,5.70
2024-01-19T17:35:24.721Z,5.00
2024-01-19T17:37:52.459Z,5.35
2024-01-19T17:40:21.253Z,5.68
2024-01-19T17:42:49.334Z,7.50
2024-01-19T17:45:22.220Z,5.35
2024-01-19T17:47:52.702Z,5.47
2024-01-19T17:50:21.470Z,5.43
2024-01-19T17:52:49.748Z,5.13
2024-01-19T17:55:17.213Z,6.10
2024-01-19T17:57:49.717Z,5.15
2024-01-19T18:00:18.115Z,5.35
2024-01-19T18:02:46.264Z,4.95
2024-01-19T18:05:13.662Z,6.13
2024-01-19T18:07:41.301Z,4.50
2024-01-19T18:10:08.939Z,5.07
2024-01-19T18:12:36.401Z,5.68
2024-01-19T18:15:07.925Z,5.38
2024-01-19T18:17:35.686Z,5.07
2024-01-19T18:20:03.538Z,5.97
2024-01-19T18:22:32.556Z,5.40
2024-01-19T18:24:59.803Z,4.72
2024-01-19T18:27:29.417Z,5.35
2024-01-19T18:29:56.810Z,6.45
2024-01-19T18:32:24.497Z,6.05
2024-01-19T18:34:52.055Z,5.28
2024-01-19T18:37:19.376Z,5.10
2024-01-19T18:39:46.423Z,4.85
2024-01-19T18:42:13.542Z,5.38
2024-01-19T18:44:40.998Z,5.75
2024-01-19T18:47:08.450Z,5.38
2024-01-19T18:49:35.928Z,5.53
2024-01-19T18:52:03.328Z,5.25
2024-01-19T18:54:30.530Z,6.03
2024-01-19T18:56:57.825Z,5.80
2024-01-19T18:59:27.068Z,5.30
2024-01-19T19:01:54.697Z,6.03
2024-01-19T19:04:21.891Z,6.43
2024-01-19T19:06:49.740Z,6.72
2024-01-19T19:09:17.064Z,5.35
2024-01-19T19:11:46.183Z,5.88
2024-01-19T19:14:14.627Z,5.70
2024-01-19T19:16:46.526Z,6.20
2024-01-19T19:19:16.031Z,6.15
2024-01-19T19:21:43.797Z,5.93
2024-01-19T19:24:11.118Z,6.28
2024-01-19T19:26:39.452Z,5.55
2024-01-19T19:29:07.478Z,6.07
2024-01-19T19:31:34.846Z,5.32
2024-01-19T19:34:02.460Z,5.22
2024-01-19T19:36:30.799Z,4.90
2024-01-19T19:38:58.910Z,4.85
2024-01-19T19:41:27.584Z,4.60
2024-01-19T19:43:54.737Z,5.00
2024-01-19T19:46:21.847Z,5.00
2024-01-19T19:48:49.010Z,4.65
2024-01-19T19:51:18.576Z,4.60
2024-01-19T19:53:49.351Z,4.38
2024-01-19T19:56:17.083Z,4.10
2024-01-19T19:58:47.155Z,4.20
2024-01-19T20:01:14.342Z,4.45
2024-01-19T20:03:41.331Z,4.70
2024-01-19T20:06:09.689Z,4.53
2024-01-19T20:08:37.283Z,4.40
2024-01-19T20:11:05.459Z,4.53
2024-01-19T20:13:34.269Z,4.15
2024-01-19T20:16:01.844Z,4.20
2024-01-19T20:18:31.006Z,4.25
2024-01-19T20:20:58.579Z,4.40
2024-01-19T20:23:26.565Z,4.53
2024-01-19T20:25:54.189Z,4.50
2024-01-19T20:28:22.254Z,4.65
2024-01-19T20:30:49.816Z,4.78
2024-01-19T20:33:17.521Z,4.70
2024-01-19T20:35:44.865Z,4.50
2024-01-19T20:38:12.831Z,4.80
2024-01-19T20:40:40.140Z,4.60
2024-01-19T20:43:08.073Z,4.97
2024-01-19T20:45:35.205Z,5.07
2024-01-19T20:48:03.384Z,5.35
2024-01-19T20:50:30.594Z,5.15
2024-01-19T20:52:57.703Z,5.53
2024-01-19T20:55:25.492Z,4.88
2024-01-19T20:57:52.542Z,5.55
2024-01-19T21:00:23.693Z,5.03
2024-01-19T21:02:51.461Z,5.03
2024-01-19T21:05:19.965Z,5.43
2024-01-19T21:07:48.341Z,5.13
2024-01-19T21:10:15.622Z,5.55
2024-01-19T21:12:43.697Z,5.60
2024-01-19T21:15:12.405Z,7.40
2024-01-19T21:17:41.230Z,5.90
2024-01-19T21:20:09.728Z,5.03
2024-01-19T21:22:37.860Z,5.40
2024-01-19T21:25:06.695Z,4.75
2024-01-19T21:27:36.343Z,4.75
2024-01-19T21:30:03.715Z,5.30
2024-01-19T21:32:30.950Z,4.95
2024-01-19T21:34:58.092Z,5.80
2024-01-19T21:37:25.488Z,6.25
2024-01-19T21:39:54.534Z,5.15
2024-01-19T21:42:21.601Z,5.30
2024-01-19T21:44:48.698Z,5.60
2024-01-19T21:47:15.849Z,5.30
2024-01-19T21:49:43.740Z,5.07
2024-01-19T21:52:11.478Z,4.85
2024-01-19T21:54:39.180Z,5.10
2024-01-19T21:57:06.490Z,5.38
2024-01-19T21:59:33.560Z,5.88
2024-01-19T22:02:00.670Z,5.22
2024-01-19T22:04:27.955Z,6.18
2024-01-19T22:06:55.197Z,5.63
2024-01-19T22:09:22.657Z,5.68
2024-01-19T22:11:55.265Z,6.13
2024-01-19T22:14:26.801Z,5.50
2024-01-19T22:16:54.221Z,9.70
2024-01-19T22:19:23.864Z,5.32
2024-01-19T22:21:51.812Z,5.47
2024-01-19T22:24:22.286Z,5.82
2024-01-19T22:26:50.134Z,5.47
2024-01-19T22:29:17.886Z,6.05
2024-01-19T22:31:45.518Z,4.90
2024-01-19T22:34:16.205Z,5.22
2024-01-19T22:36:46.126Z,4.97
2024-01-19T22:39:13.975Z,5.10
2024-01-19T22:41:42.889Z,5.20
2024-01-19T22:44:10.677Z,5.22
2024-01-19T22:46:37.917Z,4.20
2024-01-19T22:49:05.256Z,6.30
2024-01-19T22:51:32.946Z,4.60
2024-01-19T22:54:00.493Z,5.10
2024-01-19T22:56:27.527Z,4.80
2024-01-19T22:58:55.997Z,5.03
2024-01-19T23:01:23.924Z,5.97
2024-01-19T23:03:51.187Z,5.53
2024-01-19T23:06:18.369Z,5.75
2024-01-19T23:08:45.419Z,5.45
2024-01-19T23:11:12.674Z,5.28
2024-01-19T23:13:40.041Z,5.38
2024-01-19T23:16:08.485Z,5.53
2024-01-19T23:18:35.546Z,5.75
2024-01-19T23:21:03.009Z,5.38
2024-01-19T23:23:30.682Z,5.18
2024-01-19T23:25:57.898Z,5.72
2024-01-19T23:28:25.017Z,5.50
2024-01-19T23:30:52.260Z,6.13
2024-01-19T23:33:20.753Z,5.63
2024-01-19T23:35:48.723Z,5.47
2024-01-19T23:38:16.379Z,6.45
2024-01-19T23:40:43.676Z,5.15
2024-01-19T23:43:11.384Z,3.83
2024-01-19T23:45:39.038Z,4.45
2024-01-19T23:48:08.006Z,5.43
2024-01-19T23:50:35.799Z,5.53
2024-01-19T23:53:03.290Z,5.57
2024-01-19T23:55:30.421Z,5.45
2024-01-19T23:57:57.629Z,5.53
